createdAt,value
2022-11-14T00:00:54.409Z,13.65
2022-11-14T00:03:20.800Z,12.48
2022-11-14T00:05:47.543Z,12.90
2022-11-14T00:08:20.075Z,13.27
2022-11-14T00:10:48.212Z,13.50
2022-11-14T00:13:15.466Z,13.23
2022-11-14T00:15:41.830Z,13.27
2022-11-14T00:18:08.483Z,11.60
2022-11-14T00:20:35.248Z,12.30
2022-11-14T00:23:01.682Z,10.77
2022-11-14T00:25:28.182Z,11.23
2022-11-14T00:27:57.986Z,10.77
2022-11-14T00:30:24.403Z,11.32
2022-11-14T00:32:50.712Z,10.63
2022-11-14T00:35:17.156Z,11.77
2022-11-14T00:37:43.498Z,10.82
2022-11-14T00:40:10.241Z,11.02
2022-11-14T00:42:36.635Z,12.32
2022-11-14T00:45:03.267Z,10.82
2022-11-14T00:47:29.906Z,12.07
2022-11-14T00:49:56.401Z,11.00
2022-11-14T00:52:22.771Z,12.65
2022-11-14T00:54:49.076Z,10.85
2022-11-14T00:57:15.598Z,12.20
2022-11-14T00:59:41.979Z,11.90
2022-11-14T01:02:08.351Z,10.77
2022-11-14T01:04:34.708Z,11.52
2022-11-14T01:07:03.117Z,11.65
2022-11-14T01:09:29.784Z,11.25
2022-11-14T01:11:56.210Z,10.23
2022-11-14T01:14:22.699Z,11.35
2022-11-14T01:16:49.627Z,11.50
2022-11-14T01:19:15.978Z,11.65
2022-11-14T01:21:42.387Z,11.73
2022-11-14T01:24:10.453Z,11.02
2022-11-14T01:26:37.015Z,12.48
2022-11-14T01:29:03.506Z,12.32
2022-11-14T01:31:30.060Z,12.20
2022-11-14T01:33:56.439Z,11.32
2022-11-14T01:36:22.859Z,12.27
2022-11-14T01:38:53.872Z,12.70
2022-11-14T01:41:21.395Z,12.73
2022-11-14T01:43:48.532Z,13.23
2022-11-14T01:46:32.672Z,12.77
2022-11-14T01:49:13.280Z,12.90
2022-11-14T01:51:48.681Z,13.15
2022-11-14T01:54:21.979Z,11.95
2022-11-14T01:56:55.109Z,12.25
2022-11-14T01:59:25.652Z,11.93
2022-11-14T02:01:54.152Z,13.30
2022-11-14T02:06:57.606Z,12.32
2022-11-14T02:09:24.111Z,12.30
2022-11-14T02:11:51.939Z,12.95
2022-11-14T02:14:18.451Z,12.95
2022-11-14T02:16:55.695Z,13.10
2022-11-14T02:19:46.976Z,11.85
2022-11-14T02:22:13.502Z,10.88
2022-11-14T02:24:40.352Z,12.50
2022-11-14T02:27:07.431Z,13.13
2022-11-14T02:29:35.013Z,13.02
2022-11-14T02:32:04.702Z,14.00
2022-11-14T02:34:34.469Z,12.93
2022-11-14T02:37:00.855Z,13.68
2022-11-14T02:39:27.350Z,12.68
2022-11-14T02:41:53.854Z,12.80
2022-11-14T02:44:20.331Z,13.32
2022-11-14T02:46:46.998Z,14.15
2022-11-14T02:49:13.525Z,12.70
2022-11-14T02:51:41.356Z,11.95
2022-11-14T02:54:08.351Z,13.10
2022-11-14T02:56:35.355Z,13.02
2022-11-14T02:59:01.730Z,13.00
2022-11-14T03:01:28.183Z,12.93
2022-11-14T03:03:54.748Z,13.93
2022-11-14T03:06:21.147Z,14.52
2022-11-14T03:08:47.509Z,14.65
2022-11-14T03:11:13.833Z,14.07
2022-11-14T03:13:40.313Z,12.75
2022-11-14T03:16:08.838Z,13.93
2022-11-14T03:21:07.076Z,14.80
2022-11-14T03:23:33.478Z,13.70
2022-11-14T03:26:02.319Z,13.05
2022-11-14T03:28:29.642Z,13.05
2022-11-14T03:30:56.261Z,14.43
2022-11-14T03:33:22.975Z,13.82
2022-11-14T03:35:50.906Z,12.90
2022-11-14T03:38:18.348Z,13.63
2022-11-14T03:40:45.094Z,14.32
2022-11-14T03:43:11.596Z,13.45
2022-11-14T03:45:38.085Z,13.93
2022-11-14T03:48:06.365Z,13.20
2022-11-14T03:50:33.134Z,12.38
2022-11-14T03:52:59.789Z,13.52
2022-11-14T03:55:26.693Z,13.80
2022-11-14T03:57:53.128Z,14.10
2022-11-14T04:00:21.074Z,13.73
2022-11-14T04:02:47.811Z,13.15
2022-11-14T04:05:14.304Z,13.70
2022-11-14T04:07:41.046Z,14.25
2022-11-14T04:10:08.019Z,13.68
2022-11-14T04:12:34.332Z,14.15
2022-11-14T04:15:03.101Z,14.02
2022-11-14T04:17:29.511Z,14.68
2022-11-14T04:19:55.833Z,15.48
2022-11-14T04:22:22.201Z,16.65
2022-11-14T04:24:48.691Z,16.77
2022-11-14T04:27:15.310Z,15.68
2022-11-14T04:29:41.657Z,13.90
2022-11-14T04:32:08.008Z,15.15
2022-11-14T04:34:34.502Z,14.45
2022-11-14T04:37:01.016Z,15.57
2022-11-14T04:39:27.356Z,15.90
2022-11-14T04:41:53.734Z,15.30
2022-11-14T04:44:20.265Z,15.82
2022-11-14T04:46:48.045Z,14.95
2022-11-14T04:49:14.868Z,14.13
2022-11-14T04:51:41.229Z,15.18
2022-11-14T04:54:08.101Z,15.35
2022-11-14T04:56:34.499Z,13.98
2022-11-14T04:59:00.853Z,14.75
2022-11-14T05:01:27.304Z,15.13
2022-11-14T05:03:53.790Z,15.55
2022-11-14T05:06:20.184Z,15.80
2022-11-14T05:08:46.633Z,14.80
2022-11-14T05:11:17.618Z,16.02
2022-11-14T05:13:44.441Z,14.57
2022-11-14T05:16:11.102Z,15.38
2022-11-14T05:18:39.866Z,16.58
2022-11-14T05:21:14.688Z,15.00
2022-11-14T05:23:41.801Z,15.70
2022-11-14T05:26:10.679Z,15.05
2022-11-14T05:28:37.352Z,15.20
2022-11-14T05:31:07.285Z,15.50
2022-11-14T05:33:35.102Z,14.50
2022-11-14T05:36:03.402Z,14.80
2022-11-14T05:38:30.188Z,14.32
2022-11-14T05:40:56.720Z,14.82
2022-11-14T05:43:23.180Z,15.25
2022-11-14T05:45:49.505Z,16.00
2022-11-14T05:48:15.838Z,15.98
2022-11-14T05:50:42.180Z,16.25
2022-11-14T05:53:08.713Z,14.73
2022-11-14T05:55:35.007Z,15.93
2022-11-14T05:58:01.515Z,14.90
2022-11-14T06:00:27.841Z,14.85
2022-11-14T06:02:55.524Z,15.35
2022-11-14T06:05:22.832Z,16.98
2022-11-14T06:07:56.343Z,16.52
2022-11-14T06:10:23.473Z,16.02
2022-11-14T06:12:50.078Z,18.88
2022-11-14T06:15:16.685Z,17.58
2022-11-14T06:17:43.020Z,17.45
2022-11-14T06:20:09.935Z,17.25
2022-11-14T06:22:36.271Z,18.15
2022-11-14T06:25:03.242Z,17.98
2022-11-14T06:27:29.626Z,17.80
2022-11-14T06:29:56.038Z,17.73
2022-11-14T06:32:22.370Z,17.25
2022-11-14T06:34:48.711Z,16.73
2022-11-14T06:37:15.312Z,17.40
2022-11-14T06:39:41.873Z,16.70
2022-11-14T06:42:08.381Z,17.02
2022-11-14T06:44:34.873Z,16.85
2022-11-14T06:47:01.365Z,17.20
2022-11-14T06:49:27.966Z,18.15
2022-11-14T06:51:54.477Z,17.58
2022-11-14T06:54:21.080Z,16.63
2022-11-14T06:56:47.566Z,19.10
2022-11-14T06:59:14.459Z,17.65
2022-11-14T07:01:40.816Z,17.20
2022-11-14T07:04:07.206Z,17.92
2022-11-14T07:06:33.539Z,16.92
2022-11-14T07:09:00.124Z,18.25
2022-11-14T07:11:29.512Z,17.88
2022-11-14T07:13:58.395Z,17.80
2022-11-14T07:16:32.816Z,17.20
2022-11-14T07:19:00.211Z,17.70
2022-11-14T07:21:28.229Z,18.05
2022-11-14T07:23:55.023Z,18.15
2022-11-14T07:26:21.539Z,17.08
2022-11-14T07:28:52.228Z,17.25
2022-11-14T07:31:20.458Z,17.13
2022-11-14T07:33:47.136Z,17.95
2022-11-14T07:36:15.358Z,17.65
2022-11-14T07:38:42.174Z,17.60
2022-11-14T07:41:11.227Z,17.95
2022-11-14T07:43:37.865Z,17.60
2022-11-14T07:46:11.367Z,17.35
2022-11-14T07:48:37.709Z,17.75
2022-11-14T07:51:06.514Z,17.70
2022-11-14T07:53:33.983Z,17.77
2022-11-14T07:56:11.883Z,18.75
2022-11-14T07:58:39.907Z,17.95
2022-11-14T08:01:08.169Z,17.38
2022-11-14T08:03:34.965Z,18.77
2022-11-14T08:06:10.593Z,18.42
2022-11-14T08:08:37.664Z,17.92
2022-11-14T08:11:04.706Z,18.90
2022-11-14T08:13:33.605Z,17.08
2022-11-14T08:16:09.120Z,17.50
2022-11-14T08:18:38.034Z,17.40
2022-11-14T08:21:05.354Z,17.80
2022-11-14T08:23:32.551Z,17.63
2022-11-14T08:26:00.021Z,18.42
2022-11-14T08:28:26.875Z,17.67
2022-11-14T08:30:58.228Z,19.35
2022-11-14T08:33:24.572Z,17.98
2022-11-14T08:35:52.223Z,19.48
2022-11-14T08:38:18.608Z,18.83
2022-11-14T08:40:46.210Z,18.45
2022-11-14T08:43:12.808Z,18.20
2022-11-14T08:45:39.189Z,17.92
2022-11-14T08:48:05.908Z,17.42
2022-11-14T08:50:32.471Z,18.08
2022-11-14T08:52:58.815Z,18.48
2022-11-14T08:55:25.147Z,17.88
2022-11-14T08:57:53.451Z,16.77
2022-11-14T09:00:20.142Z,17.48
2022-11-14T09:02:47.006Z,17.88
2022-11-14T09:05:13.487Z,17.42
2022-11-14T09:07:40.151Z,17.52
2022-11-14T09:10:07.414Z,17.15
2022-11-14T09:12:34.067Z,17.40
2022-11-14T09:15:00.946Z,17.02
2022-11-14T09:17:27.446Z,16.35
2022-11-14T09:19:54.501Z,17.45
2022-11-14T09:22:20.884Z,17.17
2022-11-14T09:24:47.891Z,15.88
2022-11-14T09:27:14.487Z,16.92
2022-11-14T09:29:40.896Z,17.70
2022-11-14T09:32:07.451Z,16.95
2022-11-14T09:34:33.958Z,16.52
2022-11-14T09:37:00.277Z,16.80
2022-11-14T09:39:26.886Z,17.13
2022-11-14T09:42:16.826Z,18.08
2022-11-14T09:44:55.825Z,16.58
2022-11-14T09:47:48.124Z,16.58
2022-11-14T09:50:24.433Z,15.75
2022-11-14T09:52:58.499Z,16.63
2022-11-14T09:55:36.837Z,15.73
2022-11-14T09:58:06.246Z,15.13
2022-11-14T10:00:44.687Z,15.68
2022-11-14T10:06:15.710Z,14.52
2022-11-14T10:09:03.361Z,16.88
2022-11-14T10:11:34.800Z,16.77
2022-11-14T10:14:31.418Z,17.17
2022-11-14T10:17:18.999Z,17.42
2022-11-14T10:20:16.555Z,16.63
2022-11-14T10:23:06.590Z,16.73
2022-11-14T10:25:56.580Z,14.90
2022-11-14T10:28:32.371Z,17.45
2022-11-14T10:31:27.045Z,15.93
2022-11-14T10:34:04.312Z,17.55
2022-11-14T10:36:42.060Z,17.75
2022-11-14T10:39:35.249Z,16.90
2022-11-14T10:42:09.783Z,16.65
2022-11-14T10:44:43.290Z,16.17
2022-11-14T10:47:15.584Z,17.08
2022-11-14T10:49:44.869Z,15.98
2022-11-14T10:52:16.597Z,14.85
2022-11-14T10:54:51.040Z,16.33
2022-11-14T10:57:19.572Z,15.95
2022-11-14T11:02:13.487Z,14.23
2022-11-14T11:04:42.383Z,14.65
2022-11-14T11:07:08.820Z,14.10
2022-11-14T11:09:56.102Z,15.10
2022-11-14T11:12:42.668Z,14.07
2022-11-14T11:15:31.398Z,14.63
2022-11-14T11:18:06.323Z,13.48
2022-11-14T11:20:34.545Z,13.40
2022-11-14T11:23:10.180Z,13.82
2022-11-14T11:25:38.735Z,13.18
2022-11-14T11:30:32.359Z,13.00
2022-11-14T11:33:23.266Z,14.65
2022-11-14T11:35:51.041Z,13.13
2022-11-14T11:38:19.728Z,13.82
2022-11-14T11:40:49.645Z,13.10
2022-11-14T11:43:52.523Z,12.57
2022-11-14T11:46:32.598Z,13.48
2022-11-14T11:51:45.265Z,12.50
2022-11-14T11:54:26.619Z,12.60
2022-11-14T11:56:59.460Z,12.77
2022-11-14T11:59:38.817Z,12.68
2022-11-14T12:02:21.765Z,12.82
2022-11-14T12:04:50.800Z,12.85
2022-11-14T12:07:25.566Z,13.00
2022-11-14T12:10:10.582Z,13.52
2022-11-14T12:12:44.046Z,12.25
2022-11-14T12:15:42.097Z,13.13
2022-11-14T12:18:32.927Z,12.27
2022-11-14T12:21:23.211Z,12.35
2022-11-14T12:24:08.367Z,11.30
2022-11-14T12:26:42.405Z,11.57
2022-11-14T12:29:38.132Z,13.02
2022-11-14T12:32:12.284Z,11.75
2022-11-14T12:34:45.427Z,11.85
2022-11-14T12:37:24.735Z,11.18
2022-11-14T12:40:00.255Z,11.52
2022-11-14T12:42:29.155Z,12.82
2022-11-14T12:44:56.104Z,11.95
2022-11-14T12:47:26.271Z,11.65
2022-11-14T12:49:52.732Z,11.77
2022-11-14T12:52:55.732Z,11.32
2022-11-14T12:55:24.983Z,11.73
2022-11-14T12:58:17.813Z,10.85
2022-11-14T13:00:44.093Z,10.85
2022-11-14T13:03:16.304Z,11.57
2022-11-14T13:06:03.975Z,11.35
2022-11-14T13:08:45.566Z,11.23
2022-11-14T13:11:58.612Z,11.02
2022-11-14T13:14:44.168Z,11.25
2022-11-14T13:17:43.210Z,11.95
2022-11-14T13:20:40.473Z,10.95
2022-11-14T13:23:25.241Z,13.10
2022-11-14T13:26:09.979Z,14.88
2022-11-14T13:28:36.493Z,37.35
2022-11-14T13:31:07.509Z,20.70
2022-11-14T13:33:44.379Z,14.23
2022-11-14T13:36:37.650Z,13.93
2022-11-14T13:39:20.308Z,13.73
2022-11-14T13:42:05.364Z,12.50
2022-11-14T13:44:50.561Z,12.50
2022-11-14T13:47:46.537Z,12.70
2022-11-14T13:50:19.088Z,12.10
2022-11-14T13:52:47.878Z,11.90
2022-11-14T13:55:33.248Z,11.45
2022-11-14T13:58:14.986Z,10.35
2022-11-14T14:00:57.822Z,10.23
2022-11-14T14:03:46.028Z,11.48
2022-11-14T14:06:34.873Z,10.48
2022-11-14T14:09:19.381Z,11.05
2022-11-14T14:12:04.801Z,10.55
2022-11-14T14:14:38.684Z,11.05
2022-11-14T14:17:25.958Z,11.65
2022-11-14T14:19:58.377Z,11.63
2022-11-14T14:22:57.031Z,10.10
2022-11-14T14:25:42.034Z,11.25
2022-11-14T14:28:34.739Z,10.45
2022-11-14T14:31:11.276Z,11.07
2022-11-14T14:33:47.892Z,11.15
2022-11-14T14:36:19.827Z,10.63
2022-11-14T14:38:47.375Z,16.77
2022-11-14T14:41:16.031Z,20.05
2022-11-14T14:46:10.383Z,12.43
2022-11-14T14:48:41.988Z,13.32
2022-11-14T14:51:13.812Z,11.98
2022-11-14T14:53:51.667Z,12.57
2022-11-14T14:56:21.837Z,10.85
2022-11-14T14:58:48.243Z,10.20
2022-11-14T15:01:17.709Z,9.90
2022-11-14T15:03:51.540Z,11.02
2022-11-14T15:06:31.540Z,10.30
2022-11-14T15:09:00.718Z,9.70
2022-11-14T15:11:32.404Z,8.48
2022-11-14T15:14:01.563Z,9.43
2022-11-14T15:16:29.884Z,9.45
2022-11-14T15:18:58.203Z,8.98
2022-11-14T15:21:29.685Z,8.43
2022-11-14T15:24:18.958Z,8.82
2022-11-14T15:26:49.888Z,9.02
2022-11-14T15:29:19.546Z,8.45
2022-11-14T15:31:52.335Z,7.97
2022-11-14T15:34:28.359Z,8.63
2022-11-14T15:37:13.447Z,8.55
2022-11-14T15:39:42.096Z,8.13
2022-11-14T15:44:45.321Z,8.82
2022-11-14T15:47:14.239Z,9.75
2022-11-14T15:49:53.977Z,10.18
2022-11-14T15:52:26.538Z,9.75
2022-11-14T15:54:52.893Z,10.13
2022-11-14T15:57:19.302Z,9.85
2022-11-14T15:59:45.808Z,10.18
2022-11-14T16:02:29.454Z,10.00
2022-11-14T16:04:57.665Z,10.02
2022-11-14T16:07:24.289Z,10.05
2022-11-14T16:09:51.251Z,10.27
2022-11-14T16:12:17.879Z,10.07
2022-11-14T16:14:45.084Z,10.07
2022-11-14T16:17:17.544Z,10.48
2022-11-14T16:19:44.244Z,9.70
2022-11-14T16:22:15.825Z,9.77
2022-11-14T16:24:42.222Z,9.90
2022-11-14T16:27:08.749Z,11.15
2022-11-14T16:29:35.381Z,10.43
2022-11-14T16:32:01.810Z,10.15
2022-11-14T16:34:28.411Z,11.32
2022-11-14T16:36:59.626Z,10.98
2022-11-14T16:39:26.091Z,11.65
2022-11-14T16:41:52.934Z,12.85
2022-11-14T16:44:19.338Z,11.25
2022-11-14T16:46:46.229Z,11.48
2022-11-14T16:49:17.331Z,11.32
2022-11-14T16:51:48.858Z,11.38
2022-11-14T16:54:17.802Z,10.82
2022-11-14T16:56:44.202Z,12.43
2022-11-14T16:59:11.226Z,12.05
2022-11-14T17:01:37.943Z,26.52
2022-11-14T17:04:05.070Z,19.33
2022-11-14T17:06:31.710Z,62.47
2022-11-14T17:08:59.819Z,29.95
2022-11-14T17:11:26.791Z,28.52
2022-11-14T17:13:56.530Z,17.92
2022-11-14T17:16:23.209Z,22.85
2022-11-14T17:18:54.585Z,15.20
2022-11-14T17:21:21.951Z,13.38
2022-11-14T17:23:56.584Z,12.35
2022-11-14T17:26:23.249Z,10.77
2022-11-14T17:28:49.939Z,10.63
2022-11-14T17:31:17.169Z,11.48
2022-11-14T17:33:44.609Z,10.60
2022-11-14T17:36:11.749Z,10.30
2022-11-14T17:38:38.606Z,10.35
2022-11-14T17:41:06.381Z,12.77
2022-11-14T17:43:39.491Z,10.32
2022-11-14T17:46:12.596Z,10.70
2022-11-14T17:48:41.860Z,11.13
2022-11-14T17:51:12.553Z,11.55
2022-11-14T17:53:39.562Z,12.88
2022-11-14T17:56:07.737Z,15.05
2022-11-14T17:58:34.632Z,15.48
2022-11-14T18:01:01.007Z,16.40
2022-11-14T18:03:28.304Z,14.48
2022-11-14T18:06:05.330Z,13.75
2022-11-14T18:08:32.036Z,14.35
2022-11-14T18:11:03.208Z,12.27
2022-11-14T18:13:29.782Z,13.52
2022-11-14T18:16:02.281Z,13.48
2022-11-14T18:18:32.142Z,15.23
2022-11-14T18:21:05.383Z,13.75
2022-11-14T18:23:31.885Z,12.68
2022-11-14T18:25:59.736Z,13.73
2022-11-14T18:28:26.102Z,13.32
2022-11-14T18:30:56.816Z,13.98
2022-11-14T18:33:23.358Z,13.27
2022-11-14T18:36:00.358Z,13.68
2022-11-14T18:38:30.346Z,13.25
2022-11-14T18:40:57.707Z,12.13
2022-11-14T18:43:24.395Z,12.90
2022-11-14T18:45:52.371Z,11.27
2022-11-14T18:48:18.891Z,11.55
2022-11-14T18:50:45.422Z,12.63
2022-11-14T18:53:11.937Z,12.07
2022-11-14T18:55:40.271Z,13.20
2022-11-14T18:58:07.655Z,12.63
2022-11-14T19:00:34.609Z,14.40
2022-11-14T19:03:05.819Z,14.15
2022-11-14T19:05:35.344Z,13.15
2022-11-14T19:08:02.095Z,15.27
2022-11-14T19:10:28.669Z,15.73
2022-11-14T19:12:55.168Z,15.50
2022-11-14T19:15:21.721Z,13.68
2022-11-14T19:17:48.527Z,13.55
2022-11-14T19:20:19.717Z,12.85
2022-11-14T19:22:46.542Z,12.13
2022-11-14T19:25:14.272Z,11.80
2022-11-14T19:27:40.645Z,13.30
2022-11-14T19:30:07.950Z,12.30
2022-11-14T19:32:34.446Z,13.27
2022-11-14T19:35:00.800Z,12.93
2022-11-14T19:37:29.839Z,14.20
2022-11-14T19:39:56.483Z,13.68
2022-11-14T19:42:23.083Z,12.25
2022-11-14T19:44:49.433Z,12.85
2022-11-14T19:47:16.021Z,13.38
2022-11-14T19:49:43.010Z,13.32
2022-11-14T19:52:09.362Z,12.93
2022-11-14T19:54:36.217Z,13.73
2022-11-14T19:57:02.594Z,12.65
2022-11-14T19:59:29.225Z,13.68
2022-11-14T20:01:55.917Z,12.93
2022-11-14T20:04:22.603Z,12.93
2022-11-14T20:06:48.990Z,12.95
2022-11-14T20:09:16.696Z,12.70
2022-11-14T20:11:43.418Z,13.67
2022-11-14T20:14:12.066Z,13.07
2022-11-14T20:19:05.156Z,10.93
2022-11-14T20:21:35.141Z,11.73
2022-11-14T20:24:01.909Z,10.82
2022-11-14T20:26:28.447Z,11.73
2022-11-14T20:28:54.918Z,10.68
2022-11-14T20:31:27.198Z,11.82
2022-11-14T20:33:54.851Z,11.80
2022-11-14T20:36:24.731Z,11.03
2022-11-14T20:38:52.202Z,10.82
2022-11-14T20:41:19.728Z,11.35
2022-11-14T20:43:47.765Z,11.27
2022-11-14T20:46:17.043Z,11.35
2022-11-14T20:48:46.835Z,10.73
2022-11-14T20:51:16.691Z,11.38
2022-11-14T20:53:43.716Z,11.27
2022-11-14T20:56:12.674Z,11.35
2022-11-14T20:58:46.871Z,11.13
2022-11-14T21:01:14.225Z,11.52
2022-11-14T21:03:42.321Z,11.13
2022-11-14T21:06:12.235Z,11.05
2022-11-14T21:08:39.283Z,11.05
2022-11-14T21:11:08.528Z,10.88
2022-11-14T21:13:55.031Z,11.45
2022-11-14T21:16:23.098Z,11.25
2022-11-14T21:18:53.644Z,12.13
2022-11-14T21:21:23.854Z,11.57
2022-11-14T21:23:54.443Z,11.93
2022-11-14T21:26:29.313Z,12.15
2022-11-14T21:28:58.786Z,11.80
2022-11-14T21:31:27.664Z,12.15
2022-11-14T21:33:57.326Z,12.10
2022-11-14T21:39:14.654Z,11.48
2022-11-14T21:41:44.649Z,11.82
2022-11-14T21:44:17.284Z,11.65
2022-11-14T21:46:46.158Z,11.07
2022-11-14T21:49:14.554Z,11.32
2022-11-14T21:51:51.783Z,11.75
2022-11-14T21:54:18.589Z,11.45
2022-11-14T21:56:44.932Z,10.80
2022-11-14T21:59:16.138Z,10.63
2022-11-14T22:02:06.415Z,10.48
2022-11-14T22:04:33.556Z,10.40
2022-11-14T22:07:02.329Z,10.73
2022-11-14T22:09:31.674Z,11.20
2022-11-14T22:11:58.640Z,11.13
2022-11-14T22:14:25.787Z,12.52
2022-11-14T22:16:52.413Z,11.23
2022-11-14T22:19:19.999Z,11.07
2022-11-14T22:21:46.780Z,11.60
2022-11-14T22:24:13.145Z,10.93
2022-11-14T22:26:40.624Z,11.05
2022-11-14T22:29:10.240Z,10.70
2022-11-14T22:31:37.446Z,11.25
2022-11-14T22:34:04.884Z,11.90
2022-11-14T22:36:31.225Z,11.88
2022-11-14T22:39:00.206Z,11.20
2022-11-14T22:41:32.221Z,10.80
2022-11-14T22:43:59.847Z,9.38
2022-11-14T22:46:28.725Z,9.77
2022-11-14T22:48:55.696Z,11.05
2022-11-14T22:51:25.220Z,10.30
2022-11-14T22:53:54.065Z,10.60
2022-11-14T22:56:23.380Z,11.43
2022-11-14T22:58:49.945Z,10.93
2022-11-14T23:01:20.948Z,10.65
2022-11-14T23:03:48.921Z,10.90
2022-11-14T23:06:17.670Z,10.40
2022-11-14T23:08:44.828Z,10.50
2022-11-14T23:11:24.931Z,10.70
2022-11-14T23:13:56.340Z,10.35
2022-11-14T23:16:25.852Z,10.32
2022-11-14T23:18:55.507Z,10.70
2022-11-14T23:21:25.318Z,10.45
2022-11-14T23:23:57.406Z,10.07
2022-11-14T23:26:25.493Z,10.07
2022-11-14T23:28:52.510Z,9.68
2022-11-14T23:31:21.341Z,10.20
2022-11-14T23:33:52.367Z,10.38
2022-11-14T23:36:19.095Z,10.60
2022-11-14T23:38:45.467Z,10.18
2022-11-14T23:41:20.447Z,9.27
2022-11-14T23:43:47.260Z,10.15
2022-11-14T23:46:14.883Z,9.85
2022-11-14T23:48:41.852Z,9.80
2022-11-14T23:51:09.578Z,10.02
2022-11-14T23:53:36.702Z,10.05
2022-11-14T23:56:03.397Z,9.10
2022-11-14T23:58:30.455Z,8.45
